sensor_id;sensor_type;location;lat;lon;timestamp;P1;durP1;ratioP1;P2;durP2;ratioP2
6406;SDS011;3236;51.022;6.818;2022-08-14T00:02:19;7.63;;;3.83;;
6406;SDS011;3236;51.022;6.818;2022-08-14T00:04:46;6.22;;;4.32;;
6406;SDS011;3236;51.022;6.818;2022-08-14T00:07:13;9.23;;;4.07;;
6406;SDS011;3236;51.022;6.818;2022-08-14T00:09:40;8.40;;;4.57;;
6406;SDS011;3236;51.022;6.818;2022-08-14T00:12:08;7.93;;;4.50;;
6406;SDS011;3236;51.022;6.818;2022-08-14T00:14:39;8.10;;;3.95;;
6406;SDS011;3236;51.022;6.818;2022-08-14T00:17:07;8.13;;;4.32;;
6406;SDS011;3236;51.022;6.818;2022-08-14T00:19:34;8.95;;;4.55;;
6406;SDS011;3236;51.022;6.818;2022-08-14T00:22:01;8.15;;;4.68;;
6406;SDS011;3236;51.022;6.818;2022-08-14T00:24:29;5.65;;;4.68;;
6406;SDS011;3236;51.022;6.818;2022-08-14T00:26:57;7.45;;;4.80;;
6406;SDS011;3236;51.022;6.818;2022-08-14T00:29:24;8.10;;;4.63;;
6406;SDS011;3236;51.022;6.818;2022-08-14T00:31:51;7.28;;;4.43;;
6406;SDS011;3236;51.022;6.818;2022-08-14T00:34:20;7.72;;;4.53;;
6406;SDS011;3236;51.022;6.818;2022-08-14T00:36:47;10.07;;;4.80;;
6406;SDS011;3236;51.022;6.818;2022-08-14T00:39:15;10.45;;;4.57;;
6406;SDS011;3236;51.022;6.818;2022-08-14T00:41:42;6.95;;;4.55;;
6406;SDS011;3236;51.022;6.818;2022-08-14T00:44:09;8.15;;;5.28;;
6406;SDS011;3236;51.022;6.818;2022-08-14T00:46:36;6.07;;;4.40;;
6406;SDS011;3236;51.022;6.818;2022-08-14T00:49:03;5.80;;;4.97;;
6406;SDS011;3236;51.022;6.818;2022-08-14T00:51:33;6.47;;;4.38;;
6406;SDS011;3236;51.022;6.818;2022-08-14T00:54:01;6.20;;;5.20;;
6406;SDS011;3236;51.022;6.818;2022-08-14T00:56:28;7.53;;;4.65;;
6406;SDS011;3236;51.022;6.818;2022-08-14T00:58:55;7.38;;;4.85;;
6406;SDS011;3236;51.022;6.818;2022-08-14T01:01:23;6.85;;;4.40;;
6406;SDS011;3236;51.022;6.818;2022-08-14T01:03:50;7.47;;;4.70;;
6406;SDS011;3236;51.022;6.818;2022-08-14T01:06:18;6.38;;;4.65;;
6406;SDS011;3236;51.022;6.818;2022-08-14T01:08:47;11.48;;;4.80;;
6406;SDS011;3236;51.022;6.818;2022-08-14T01:11:14;11.00;;;4.30;;
6406;SDS011;3236;51.022;6.818;2022-08-14T01:13:42;11.07;;;5.55;;
6406;SDS011;3236;51.022;6.818;2022-08-14T01:16:11;7.50;;;4.47;;
6406;SDS011;3236;51.022;6.818;2022-08-14T01:18:42;6.55;;;4.18;;
6406;SDS011;3236;51.022;6.818;2022-08-14T01:21:30;7.07;;;4.32;;
6406;SDS011;3236;51.022;6.818;2022-08-14T01:23:58;5.57;;;4.68;;
6406;SDS011;3236;51.022;6.818;2022-08-14T01:26:26;8.55;;;4.63;;
6406;SDS011;3236;51.022;6.818;2022-08-14T01:28:54;12.43;;;5.53;;
6406;SDS011;3236;51.022;6.818;2022-08-14T01:31:24;6.60;;;4.95;;
6406;SDS011;3236;51.022;6.818;2022-08-14T01:33:54;7.07;;;5.25;;
6406;SDS011;3236;51.022;6.818;2022-08-14T01:36:26;7.90;;;5.30;;
6406;SDS011;3236;51.022;6.818;2022-08-14T01:39:02;7.80;;;5.65;;
6406;SDS011;3236;51.022;6.818;2022-08-14T01:41:32;11.52;;;6.40;;
6406;SDS011;3236;51.022;6.818;2022-08-14T01:44:03;6.75;;;5.57;;
6406;SDS011;3236;51.022;6.818;2022-08-14T01:46:35;6.65;;;5.15;;
6406;SDS011;3236;51.022;6.818;2022-08-14T01:49:06;6.60;;;5.60;;
6406;SDS011;3236;51.022;6.818;2022-08-14T01:51:35;12.35;;;5.80;;
6406;SDS011;3236;51.022;6.818;2022-08-14T01:54:06;6.57;;;5.72;;
6406;SDS011;3236;51.022;6.818;2022-08-14T01:56:35;9.23;;;6.55;;
6406;SDS011;3236;51.022;6.818;2022-08-14T01:59:04;10.02;;;6.30;;
6406;SDS011;3236;51.022;6.818;2022-08-14T02:01:32;10.43;;;6.00;;
6406;SDS011;3236;51.022;6.818;2022-08-14T02:04:01;8.38;;;5.85;;
6406;SDS011;3236;51.022;6.818;2022-08-14T02:06:28;6.97;;;5.68;;
6406;SDS011;3236;51.022;6.818;2022-08-14T02:08:55;5.90;;;5.30;;
6406;SDS011;3236;51.022;6.818;2022-08-14T02:11:25;8.60;;;5.50;;
6406;SDS011;3236;51.022;6.818;2022-08-14T02:13:54;8.60;;;6.00;;
6406;SDS011;3236;51.022;6.818;2022-08-14T02:16:24;8.80;;;5.18;;
6406;SDS011;3236;51.022;6.818;2022-08-14T02:18:58;5.63;;;4.97;;
6406;SDS011;3236;51.022;6.818;2022-08-14T02:21:29;6.72;;;5.70;;
6406;SDS011;3236;51.022;6.818;2022-08-14T02:23:57;10.40;;;5.13;;
6406;SDS011;3236;51.022;6.818;2022-08-14T02:26:28;11.55;;;5.47;;
6406;SDS011;3236;51.022;6.818;2022-08-14T02:28:57;9.90;;;5.50;;
6406;SDS011;3236;51.022;6.818;2022-08-14T02:31:26;9.35;;;5.63;;
6406;SDS011;3236;51.022;6.818;2022-08-14T02:34:02;7.75;;;5.82;;
6406;SDS011;3236;51.022;6.818;2022-08-14T02:36:32;8.13;;;5.65;;
6406;SDS011;3236;51.022;6.818;2022-08-14T02:38:59;9.38;;;7.28;;
6406;SDS011;3236;51.022;6.818;2022-08-14T02:41:27;9.98;;;6.82;;
6406;SDS011;3236;51.022;6.818;2022-08-14T02:43:56;10.98;;;6.47;;
6406;SDS011;3236;51.022;6.818;2022-08-14T02:46:23;10.60;;;7.28;;
6406;SDS011;3236;51.022;6.818;2022-08-14T02:48:50;7.07;;;6.07;;
6406;SDS011;3236;51.022;6.818;2022-08-14T02:51:17;12.65;;;6.32;;
6406;SDS011;3236;51.022;6.818;2022-08-14T02:53:44;12.80;;;6.28;;
6406;SDS011;3236;51.022;6.818;2022-08-14T02:56:12;9.20;;;6.10;;
6406;SDS011;3236;51.022;6.818;2022-08-14T02:58:43;8.07;;;6.20;;
6406;SDS011;3236;51.022;6.818;2022-08-14T03:01:13;9.47;;;6.90;;
6406;SDS011;3236;51.022;6.818;2022-08-14T03:03:41;7.97;;;6.20;;
6406;SDS011;3236;51.022;6.818;2022-08-14T03:06:09;7.75;;;6.30;;
6406;SDS011;3236;51.022;6.818;2022-08-14T03:08:43;7.10;;;6.15;;
6406;SDS011;3236;51.022;6.818;2022-08-14T03:11:11;12.13;;;6.32;;
6406;SDS011;3236;51.022;6.818;2022-08-14T03:13:43;9.30;;;6.38;;
6406;SDS011;3236;51.022;6.818;2022-08-14T03:16:12;7.90;;;6.97;;
6406;SDS011;3236;51.022;6.818;2022-08-14T03:18:41;9.05;;;7.05;;
6406;SDS011;3236;51.022;6.818;2022-08-14T03:21:13;8.50;;;6.95;;
6406;SDS011;3236;51.022;6.818;2022-08-14T03:23:42;8.23;;;6.82;;
6406;SDS011;3236;51.022;6.818;2022-08-14T03:26:13;8.90;;;6.95;;
6406;SDS011;3236;51.022;6.818;2022-08-14T03:28:43;8.82;;;6.82;;
6406;SDS011;3236;51.022;6.818;2022-08-14T03:31:12;9.05;;;7.10;;
6406;SDS011;3236;51.022;6.818;2022-08-14T03:33:47;7.82;;;6.60;;
6406;SDS011;3236;51.022;6.818;2022-08-14T03:36:17;12.13;;;7.60;;
6406;SDS011;3236;51.022;6.818;2022-08-14T03:38:47;8.50;;;7.05;;
6406;SDS011;3236;51.022;6.818;2022-08-14T03:41:18;7.50;;;6.72;;
6406;SDS011;3236;51.022;6.818;2022-08-14T03:43:48;9.02;;;7.70;;
6406;SDS011;3236;51.022;6.818;2022-08-14T03:46:16;9.63;;;7.68;;
6406;SDS011;3236;51.022;6.818;2022-08-14T03:48:44;9.05;;;7.65;;
6406;SDS011;3236;51.022;6.818;2022-08-14T03:51:12;13.70;;;8.32;;
6406;SDS011;3236;51.022;6.818;2022-08-14T03:53:43;8.80;;;7.78;;
6406;SDS011;3236;51.022;6.818;2022-08-14T03:56:12;12.65;;;8.43;;
6406;SDS011;3236;51.022;6.818;2022-08-14T03:58:42;15.57;;;8.27;;
6406;SDS011;3236;51.022;6.818;2022-08-14T04:01:11;16.60;;;10.52;;
6406;SDS011;3236;51.022;6.818;2022-08-14T04:03:39;10.40;;;8.38;;
6406;SDS011;3236;51.022;6.818;2022-08-14T04:06:06;9.63;;;8.27;;
6406;SDS011;3236;51.022;6.818;2022-08-14T04:08:35;9.98;;;8.48;;
6406;SDS011;3236;51.022;6.818;2022-08-14T04:11:03;9.98;;;8.52;;
6406;SDS011;3236;51.022;6.818;2022-08-14T04:13:35;10.25;;;8.07;;
6406;SDS011;3236;51.022;6.818;2022-08-14T04:16:04;10.77;;;8.82;;
6406;SDS011;3236;51.022;6.818;2022-08-14T04:18:38;9.40;;;8.23;;
6406;SDS011;3236;51.022;6.818;2022-08-14T04:21:05;11.65;;;8.25;;
6406;SDS011;3236;51.022;6.818;2022-08-14T04:23:33;9.57;;;8.10;;
6406;SDS011;3236;51.022;6.818;2022-08-14T04:26:00;11.10;;;9.10;;
6406;SDS011;3236;51.022;6.818;2022-08-14T04:28:28;15.68;;;9.00;;
6406;SDS011;3236;51.022;6.818;2022-08-14T04:30:56;10.30;;;8.32;;
6406;SDS011;3236;51.022;6.818;2022-08-14T04:33:23;9.75;;;8.63;;
6406;SDS011;3236;51.022;6.818;2022-08-14T04:35:51;10.55;;;8.55;;
6406;SDS011;3236;51.022;6.818;2022-08-14T04:38:19;9.95;;;8.00;;
6406;SDS011;3236;51.022;6.818;2022-08-14T04:41:04;13.40;;;8.85;;
6406;SDS011;3236;51.022;6.818;2022-08-14T04:43:49;11.88;;;9.38;;
6406;SDS011;3236;51.022;6.818;2022-08-14T04:46:17;14.70;;;8.70;;
6406;SDS011;3236;51.022;6.818;2022-08-14T04:48:45;11.18;;;8.57;;
6406;SDS011;3236;51.022;6.818;2022-08-14T04:51:14;12.55;;;9.48;;
6406;SDS011;3236;51.022;6.818;2022-08-14T04:53:43;10.73;;;9.35;;
6406;SDS011;3236;51.022;6.818;2022-08-14T04:56:12;13.68;;;10.15;;
6406;SDS011;3236;51.022;6.818;2022-08-14T04:58:41;11.55;;;9.13;;
6406;SDS011;3236;51.022;6.818;2022-08-14T05:01:09;11.18;;;9.52;;
6406;SDS011;3236;51.022;6.818;2022-08-14T05:03:37;10.30;;;9.20;;
6406;SDS011;3236;51.022;6.818;2022-08-14T05:06:05;13.70;;;9.70;;
6406;SDS011;3236;51.022;6.818;2022-08-14T05:08:34;12.70;;;9.40;;
6406;SDS011;3236;51.022;6.818;2022-08-14T05:11:02;10.20;;;9.10;;
6406;SDS011;3236;51.022;6.818;2022-08-14T05:13:30;13.57;;;9.82;;
6406;SDS011;3236;51.022;6.818;2022-08-14T05:15:59;11.10;;;8.45;;
6406;SDS011;3236;51.022;6.818;2022-08-14T05:18:28;10.30;;;9.13;;
6406;SDS011;3236;51.022;6.818;2022-08-14T05:20:58;13.15;;;8.73;;
6406;SDS011;3236;51.022;6.818;2022-08-14T05:23:26;11.30;;;9.23;;
6406;SDS011;3236;51.022;6.818;2022-08-14T05:25:57;10.60;;;9.50;;
6406;SDS011;3236;51.022;6.818;2022-08-14T05:28:27;11.57;;;9.80;;
6406;SDS011;3236;51.022;6.818;2022-08-14T05:30:56;14.93;;;9.45;;
6406;SDS011;3236;51.022;6.818;2022-08-14T05:33:25;12.15;;;9.43;;
6406;SDS011;3236;51.022;6.818;2022-08-14T05:35:54;14.70;;;9.23;;
6406;SDS011;3236;51.022;6.818;2022-08-14T05:38:32;10.73;;;9.43;;
6406;SDS011;3236;51.022;6.818;2022-08-14T05:41:02;11.55;;;9.98;;
6406;SDS011;3236;51.022;6.818;2022-08-14T05:43:31;15.77;;;9.80;;
6406;SDS011;3236;51.022;6.818;2022-08-14T05:45:58;10.55;;;8.88;;
6406;SDS011;3236;51.022;6.818;2022-08-14T05:48:26;11.60;;;9.25;;
6406;SDS011;3236;51.022;6.818;2022-08-14T05:50:54;11.15;;;9.23;;
6406;SDS011;3236;51.022;6.818;2022-08-14T05:53:21;11.50;;;8.80;;
6406;SDS011;3236;51.022;6.818;2022-08-14T05:55:50;11.45;;;9.00;;
6406;SDS011;3236;51.022;6.818;2022-08-14T05:58:18;11.40;;;8.55;;
6406;SDS011;3236;51.022;6.818;2022-08-14T06:00:46;12.27;;;9.30;;
6406;SDS011;3236;51.022;6.818;2022-08-14T06:03:15;10.27;;;8.00;;
6406;SDS011;3236;51.022;6.818;2022-08-14T06:05:44;14.18;;;8.98;;
6406;SDS011;3236;51.022;6.818;2022-08-14T06:08:16;18.77;;;9.00;;
6406;SDS011;3236;51.022;6.818;2022-08-14T06:10:43;10.40;;;8.18;;
6406;SDS011;3236;51.022;6.818;2022-08-14T06:13:11;11.45;;;8.98;;
6406;SDS011;3236;51.022;6.818;2022-08-14T06:15:40;10.50;;;8.55;;
6406;SDS011;3236;51.022;6.818;2022-08-14T06:18:08;10.73;;;8.48;;
6406;SDS011;3236;51.022;6.818;2022-08-14T06:20:35;9.60;;;8.60;;
6406;SDS011;3236;51.022;6.818;2022-08-14T06:23:03;10.15;;;8.13;;
6406;SDS011;3236;51.022;6.818;2022-08-14T06:25:31;10.40;;;7.88;;
6406;SDS011;3236;51.022;6.818;2022-08-14T06:27:58;11.43;;;8.73;;
6406;SDS011;3236;51.022;6.818;2022-08-14T06:30:26;11.30;;;8.02;;
6406;SDS011;3236;51.022;6.818;2022-08-14T06:32:58;11.88;;;8.20;;
6406;SDS011;3236;51.022;6.818;2022-08-14T06:35:27;9.35;;;8.23;;
6406;SDS011;3236;51.022;6.818;2022-08-14T06:37:54;12.40;;;8.18;;
6406;SDS011;3236;51.022;6.818;2022-08-14T06:40:26;9.43;;;8.30;;
6406;SDS011;3236;51.022;6.818;2022-08-14T06:45:21;8.98;;;7.45;;
6406;SDS011;3236;51.022;6.818;2022-08-14T06:47:48;9.57;;;8.23;;
6406;SDS011;3236;51.022;6.818;2022-08-14T06:50:17;9.43;;;8.43;;
6406;SDS011;3236;51.022;6.818;2022-08-14T06:52:55;13.00;;;8.73;;
6406;SDS011;3236;51.022;6.818;2022-08-14T06:55:23;9.65;;;8.65;;
6406;SDS011;3236;51.022;6.818;2022-08-14T06:57:54;8.40;;;7.50;;
6406;SDS011;3236;51.022;6.818;2022-08-14T07:00:26;8.10;;;7.20;;
6406;SDS011;3236;51.022;6.818;2022-08-14T07:02:54;13.02;;;8.43;;
6406;SDS011;3236;51.022;6.818;2022-08-14T07:05:39;10.18;;;8.20;;
6406;SDS011;3236;51.022;6.818;2022-08-14T07:08:14;14.75;;;8.15;;
6406;SDS011;3236;51.022;6.818;2022-08-14T07:10:42;10.48;;;8.50;;
6406;SDS011;3236;51.022;6.818;2022-08-14T07:13:10;13.13;;;8.18;;
6406;SDS011;3236;51.022;6.818;2022-08-14T07:15:38;9.65;;;8.05;;
6406;SDS011;3236;51.022;6.818;2022-08-14T07:18:06;10.82;;;8.18;;
6406;SDS011;3236;51.022;6.818;2022-08-14T07:20:34;11.65;;;7.20;;
6406;SDS011;3236;51.022;6.818;2022-08-14T07:23:03;9.55;;;8.13;;
6406;SDS011;3236;51.022;6.818;2022-08-14T07:25:32;11.57;;;7.80;;
6406;SDS011;3236;51.022;6.818;2022-08-14T07:27:59;9.30;;;7.50;;
6406;SDS011;3236;51.022;6.818;2022-08-14T07:30:33;12.77;;;7.95;;
6406;SDS011;3236;51.022;6.818;2022-08-14T07:33:00;9.13;;;7.85;;
6406;SDS011;3236;51.022;6.818;2022-08-14T07:35:28;9.48;;;7.13;;
6406;SDS011;3236;51.022;6.818;2022-08-14T07:37:55;10.73;;;8.00;;
6406;SDS011;3236;51.022;6.818;2022-08-14T07:40:23;10.27;;;9.20;;
6406;SDS011;3236;51.022;6.818;2022-08-14T07:42:51;10.02;;;7.40;;
6406;SDS011;3236;51.022;6.818;2022-08-14T07:45:18;9.95;;;7.40;;
6406;SDS011;3236;51.022;6.818;2022-08-14T07:47:45;10.25;;;7.85;;
6406;SDS011;3236;51.022;6.818;2022-08-14T07:50:12;11.02;;;8.02;;
6406;SDS011;3236;51.022;6.818;2022-08-14T07:52:44;9.23;;;8.20;;
6406;SDS011;3236;51.022;6.818;2022-08-14T07:55:14;10.40;;;7.60;;
6406;SDS011;3236;51.022;6.818;2022-08-14T07:57:45;8.40;;;7.53;;
6406;SDS011;3236;51.022;6.818;2022-08-14T08:00:14;19.77;;;9.10;;
6406;SDS011;3236;51.022;6.818;2022-08-14T08:02:43;9.07;;;7.65;;
6406;SDS011;3236;51.022;6.818;2022-08-14T08:05:11;12.45;;;8.40;;
6406;SDS011;3236;51.022;6.818;2022-08-14T08:07:40;9.55;;;7.18;;
6406;SDS011;3236;51.022;6.818;2022-08-14T08:10:09;9.35;;;7.47;;
6406;SDS011;3236;51.022;6.818;2022-08-14T08:12:56;8.48;;;7.68;;
6406;SDS011;3236;51.022;6.818;2022-08-14T08:15:25;8.63;;;7.57;;
6406;SDS011;3236;51.022;6.818;2022-08-14T08:17:55;7.95;;;7.15;;
6406;SDS011;3236;51.022;6.818;2022-08-14T08:20:23;9.02;;;7.65;;
6406;SDS011;3236;51.022;6.818;2022-08-14T08:22:51;9.82;;;7.20;;
6406;SDS011;3236;51.022;6.818;2022-08-14T08:25:20;10.18;;;7.70;;
6406;SDS011;3236;51.022;6.818;2022-08-14T08:28:00;7.95;;;7.10;;
6406;SDS011;3236;51.022;6.818;2022-08-14T08:30:31;11.38;;;7.38;;
6406;SDS011;3236;51.022;6.818;2022-08-14T08:33:00;7.50;;;6.80;;
6406;SDS011;3236;51.022;6.818;2022-08-14T08:35:28;7.93;;;7.13;;
6406;SDS011;3236;51.022;6.818;2022-08-14T08:37:59;11.55;;;7.43;;
6406;SDS011;3236;51.022;6.818;2022-08-14T08:40:29;11.73;;;8.02;;
6406;SDS011;3236;51.022;6.818;2022-08-14T08:43:01;8.50;;;7.03;;
6406;SDS011;3236;51.022;6.818;2022-08-14T08:45:30;8.32;;;7.50;;
6406;SDS011;3236;51.022;6.818;2022-08-14T08:47:58;8.35;;;6.63;;
6406;SDS011;3236;51.022;6.818;2022-08-14T08:50:25;10.80;;;7.25;;
6406;SDS011;3236;51.022;6.818;2022-08-14T08:52:55;9.65;;;7.03;;
6406;SDS011;3236;51.022;6.818;2022-08-14T08:55:26;8.77;;;7.30;;
6406;SDS011;3236;51.022;6.818;2022-08-14T08:57:54;8.23;;;6.88;;
6406;SDS011;3236;51.022;6.818;2022-08-14T09:00:25;9.10;;;7.95;;
6406;SDS011;3236;51.022;6.818;2022-08-14T09:02:59;8.82;;;7.00;;
6406;SDS011;3236;51.022;6.818;2022-08-14T09:05:28;7.22;;;6.28;;
6406;SDS011;3236;51.022;6.818;2022-08-14T09:08:14;7.47;;;6.45;;
6406;SDS011;3236;51.022;6.818;2022-08-14T09:10:42;10.20;;;6.80;;
6406;SDS011;3236;51.022;6.818;2022-08-14T09:13:10;7.82;;;7.03;;
6406;SDS011;3236;51.022;6.818;2022-08-14T09:15:40;9.63;;;7.00;;
6406;SDS011;3236;51.022;6.818;2022-08-14T09:18:09;10.10;;;7.10;;
6406;SDS011;3236;51.022;6.818;2022-08-14T09:20:37;8.27;;;6.75;;
6406;SDS011;3236;51.022;6.818;2022-08-14T09:23:05;7.65;;;6.40;;
6406;SDS011;3236;51.022;6.818;2022-08-14T09:25:37;7.47;;;6.60;;
6406;SDS011;3236;51.022;6.818;2022-08-14T09:28:09;7.38;;;6.60;;
6406;SDS011;3236;51.022;6.818;2022-08-14T09:30:37;7.25;;;6.55;;
6406;SDS011;3236;51.022;6.818;2022-08-14T09:38:57;7.38;;;6.65;;
6406;SDS011;3236;51.022;6.818;2022-08-14T09:41:33;7.60;;;6.82;;
6406;SDS011;3236;51.022;6.818;2022-08-14T09:44:13;7.43;;;6.63;;
6406;SDS011;3236;51.022;6.818;2022-08-14T09:46:55;7.82;;;5.13;;
6406;SDS011;3236;51.022;6.818;2022-08-14T09:49:29;9.35;;;5.82;;
6406;SDS011;3236;51.022;6.818;2022-08-14T09:52:03;5.53;;;5.00;;
6406;SDS011;3236;51.022;6.818;2022-08-14T09:54:35;5.93;;;5.38;;
6406;SDS011;3236;51.022;6.818;2022-08-14T09:57:04;8.82;;;6.05;;
6406;SDS011;3236;51.022;6.818;2022-08-14T09:59:40;5.30;;;4.70;;
6406;SDS011;3236;51.022;6.818;2022-08-14T10:02:21;5.63;;;5.00;;
6406;SDS011;3236;51.022;6.818;2022-08-14T10:04:59;5.55;;;4.85;;
6406;SDS011;3236;51.022;6.818;2022-08-14T10:07:29;5.85;;;4.90;;
6406;SDS011;3236;51.022;6.818;2022-08-14T10:09:57;5.45;;;4.95;;
6406;SDS011;3236;51.022;6.818;2022-08-14T10:12:25;6.82;;;5.03;;
6406;SDS011;3236;51.022;6.818;2022-08-14T10:15:13;6.55;;;5.57;;
6406;SDS011;3236;51.022;6.818;2022-08-14T10:17:46;5.78;;;4.93;;
6406;SDS011;3236;51.022;6.818;2022-08-14T10:20:14;5.75;;;5.15;;
6406;SDS011;3236;51.022;6.818;2022-08-14T10:22:45;5.72;;;4.30;;
6406;SDS011;3236;51.022;6.818;2022-08-14T10:25:14;5.25;;;4.75;;
6406;SDS011;3236;51.022;6.818;2022-08-14T10:27:43;4.93;;;3.90;;
6406;SDS011;3236;51.022;6.818;2022-08-14T10:30:14;6.47;;;4.50;;
6406;SDS011;3236;51.022;6.818;2022-08-14T10:32:46;5.88;;;4.20;;
6406;SDS011;3236;51.022;6.818;2022-08-14T10:35:14;5.07;;;4.35;;
6406;SDS011;3236;51.022;6.818;2022-08-14T10:37:43;5.13;;;4.63;;
6406;SDS011;3236;51.022;6.818;2022-08-14T10:40:13;5.35;;;4.28;;
6406;SDS011;3236;51.022;6.818;2022-08-14T10:42:42;6.45;;;4.30;;
6406;SDS011;3236;51.022;6.818;2022-08-14T10:45:18;4.68;;;4.28;;
6406;SDS011;3236;51.022;6.818;2022-08-14T10:47:47;5.88;;;3.97;;
6406;SDS011;3236;51.022;6.818;2022-08-14T10:50:15;5.10;;;3.92;;
6406;SDS011;3236;51.022;6.818;2022-08-14T10:52:42;4.90;;;4.50;;
6406;SDS011;3236;51.022;6.818;2022-08-14T10:55:11;4.50;;;4.20;;
6406;SDS011;3236;51.022;6.818;2022-08-14T10:57:51;3.90;;;3.60;;
6406;SDS011;3236;51.022;6.818;2022-08-14T11:00:22;6.72;;;3.60;;
6406;SDS011;3236;51.022;6.818;2022-08-14T11:02:56;5.25;;;4.15;;
6406;SDS011;3236;51.022;6.818;2022-08-14T11:05:36;5.47;;;3.58;;
6406;SDS011;3236;51.022;6.818;2022-08-14T11:08:06;4.53;;;4.03;;
6406;SDS011;3236;51.022;6.818;2022-08-14T11:10:41;4.20;;;3.80;;
6406;SDS011;3236;51.022;6.818;2022-08-14T11:13:14;5.60;;;4.43;;
6406;SDS011;3236;51.022;6.818;2022-08-14T11:15:43;8.48;;;4.13;;
6406;SDS011;3236;51.022;6.818;2022-08-14T11:18:12;3.90;;;3.55;;
6406;SDS011;3236;51.022;6.818;2022-08-14T11:20:39;4.30;;;3.75;;
6406;SDS011;3236;51.022;6.818;2022-08-14T11:23:13;4.10;;;3.80;;
6406;SDS011;3236;51.022;6.818;2022-08-14T11:25:42;5.60;;;4.00;;
6406;SDS011;3236;51.022;6.818;2022-08-14T11:28:11;4.47;;;4.07;;
6406;SDS011;3236;51.022;6.818;2022-08-14T11:30:39;5.03;;;3.95;;
6406;SDS011;3236;51.022;6.818;2022-08-14T11:33:12;4.22;;;3.75;;
6406;SDS011;3236;51.022;6.818;2022-08-14T11:35:40;6.05;;;4.07;;
6406;SDS011;3236;51.022;6.818;2022-08-14T11:38:08;7.88;;;3.92;;
6406;SDS011;3236;51.022;6.818;2022-08-14T11:40:37;4.03;;;3.72;;
6406;SDS011;3236;51.022;6.818;2022-08-14T11:43:05;4.80;;;4.10;;
6406;SDS011;3236;51.022;6.818;2022-08-14T11:45:34;4.10;;;3.40;;
6406;SDS011;3236;51.022;6.818;2022-08-14T11:48:14;4.00;;;3.67;;
6406;SDS011;3236;51.022;6.818;2022-08-14T11:50:42;4.18;;;3.78;;
6406;SDS011;3236;51.022;6.818;2022-08-14T11:53:17;6.28;;;3.90;;
6406;SDS011;3236;51.022;6.818;2022-08-14T11:55:45;5.10;;;4.00;;
6406;SDS011;3236;51.022;6.818;2022-08-14T11:58:14;5.38;;;4.50;;
6406;SDS011;3236;51.022;6.818;2022-08-14T12:00:45;3.85;;;3.53;;
6406;SDS011;3236;51.022;6.818;2022-08-14T12:03:14;3.92;;;3.63;;
6406;SDS011;3236;51.022;6.818;2022-08-14T12:05:41;6.93;;;3.67;;
6406;SDS011;3236;51.022;6.818;2022-08-14T12:08:09;8.88;;;3.42;;
6406;SDS011;3236;51.022;6.818;2022-08-14T12:10:37;3.85;;;3.55;;
6406;SDS011;3236;51.022;6.818;2022-08-14T12:13:11;4.03;;;3.72;;
6406;SDS011;3236;51.022;6.818;2022-08-14T12:15:40;5.15;;;3.63;;
6406;SDS011;3236;51.022;6.818;2022-08-14T12:18:10;5.65;;;3.40;;
6406;SDS011;3236;51.022;6.818;2022-08-14T12:20:51;4.32;;;3.92;;
6406;SDS011;3236;51.022;6.818;2022-08-14T12:23:37;3.85;;;3.45;;
6406;SDS011;3236;51.022;6.818;2022-08-14T12:26:06;3.60;;;3.30;;
6406;SDS011;3236;51.022;6.818;2022-08-14T12:28:36;3.70;;;3.00;;
6406;SDS011;3236;51.022;6.818;2022-08-14T12:31:11;3.17;;;2.95;;
6406;SDS011;3236;51.022;6.818;2022-08-14T12:33:39;4.88;;;3.17;;
6406;SDS011;3236;51.022;6.818;2022-08-14T12:36:08;3.03;;;2.83;;
6406;SDS011;3236;51.022;6.818;2022-08-14T12:38:49;3.83;;;3.15;;
6406;SDS011;3236;51.022;6.818;2022-08-14T12:41:16;6.30;;;3.17;;
6406;SDS011;3236;51.022;6.818;2022-08-14T12:43:46;3.50;;;3.20;;
6406;SDS011;3236;51.022;6.818;2022-08-14T12:46:25;4.35;;;3.22;;
6406;SDS011;3236;51.022;6.818;2022-08-14T12:48:54;4.72;;;3.03;;
6406;SDS011;3236;51.022;6.818;2022-08-14T12:51:25;4.95;;;3.20;;
6406;SDS011;3236;51.022;6.818;2022-08-14T12:53:53;3.20;;;2.85;;
6406;SDS011;3236;51.022;6.818;2022-08-14T12:56:23;3.40;;;3.10;;
6406;SDS011;3236;51.022;6.818;2022-08-14T12:58:52;3.30;;;2.92;;
6406;SDS011;3236;51.022;6.818;2022-08-14T13:01:23;3.08;;;2.88;;
6406;SDS011;3236;51.022;6.818;2022-08-14T13:04:04;8.73;;;3.30;;
6406;SDS011;3236;51.022;6.818;2022-08-14T13:06:34;3.63;;;3.28;;
6406;SDS011;3236;51.022;6.818;2022-08-14T13:09:03;4.90;;;3.35;;
6406;SDS011;3236;51.022;6.818;2022-08-14T13:11:33;4.10;;;3.80;;
6406;SDS011;3236;51.022;6.818;2022-08-14T13:14:05;3.60;;;3.30;;
6406;SDS011;3236;51.022;6.818;2022-08-14T13:16:32;3.47;;;3.17;;
6406;SDS011;3236;51.022;6.818;2022-08-14T13:19:00;3.28;;;2.88;;
6406;SDS011;3236;51.022;6.818;2022-08-14T13:21:28;7.18;;;3.45;;
6406;SDS011;3236;51.022;6.818;2022-08-14T13:23:57;4.88;;;3.70;;
6406;SDS011;3236;51.022;6.818;2022-08-14T13:26:25;3.35;;;3.10;;
6406;SDS011;3236;51.022;6.818;2022-08-14T13:28:56;3.83;;;3.40;;
6406;SDS011;3236;51.022;6.818;2022-08-14T13:31:25;4.97;;;3.78;;
6406;SDS011;3236;51.022;6.818;2022-08-14T13:33:56;3.80;;;3.50;;
6406;SDS011;3236;51.022;6.818;2022-08-14T13:36:24;3.40;;;3.03;;
6406;SDS011;3236;51.022;6.818;2022-08-14T13:38:51;4.97;;;3.05;;
6406;SDS011;3236;51.022;6.818;2022-08-14T13:41:21;5.13;;;3.30;;
6406;SDS011;3236;51.022;6.818;2022-08-14T13:43:51;3.55;;;3.25;;
6406;SDS011;3236;51.022;6.818;2022-08-14T13:46:20;3.80;;;3.40;;
6406;SDS011;3236;51.022;6.818;2022-08-14T13:48:47;4.00;;;3.70;;
6406;SDS011;3236;51.022;6.818;2022-08-14T13:51:15;4.15;;;3.85;;
6406;SDS011;3236;51.022;6.818;2022-08-14T13:53:44;4.63;;;3.88;;
6406;SDS011;3236;51.022;6.818;2022-08-14T13:56:13;4.28;;;3.97;;
6406;SDS011;3236;51.022;6.818;2022-08-14T13:58:44;4.30;;;3.83;;
6406;SDS011;3236;51.022;6.818;2022-08-14T14:01:19;4.68;;;3.92;;
6406;SDS011;3236;51.022;6.818;2022-08-14T14:03:47;4.07;;;3.75;;
6406;SDS011;3236;51.022;6.818;2022-08-14T14:06:19;3.92;;;3.45;;
6406;SDS011;3236;51.022;6.818;2022-08-14T14:08:51;3.78;;;3.47;;
6406;SDS011;3236;51.022;6.818;2022-08-14T14:11:20;3.80;;;3.50;;
6406;SDS011;3236;51.022;6.818;2022-08-14T14:13:50;6.20;;;3.70;;
6406;SDS011;3236;51.022;6.818;2022-08-14T14:16:20;4.10;;;3.47;;
6406;SDS011;3236;51.022;6.818;2022-08-14T14:18:48;3.97;;;3.58;;
6406;SDS011;3236;51.022;6.818;2022-08-14T14:21:20;3.72;;;3.30;;
6406;SDS011;3236;51.022;6.818;2022-08-14T14:23:48;7.10;;;3.60;;
6406;SDS011;3236;51.022;6.818;2022-08-14T14:26:16;4.03;;;3.45;;
6406;SDS011;3236;51.022;6.818;2022-08-14T14:28:46;5.35;;;3.70;;
6406;SDS011;3236;51.022;6.818;2022-08-14T14:31:16;3.53;;;3.23;;
6406;SDS011;3236;51.022;6.818;2022-08-14T14:33:46;3.58;;;3.28;;
6406;SDS011;3236;51.022;6.818;2022-08-14T14:36:22;5.70;;;3.70;;
6406;SDS011;3236;51.022;6.818;2022-08-14T14:38:51;3.65;;;3.22;;
6406;SDS011;3236;51.022;6.818;2022-08-14T14:41:20;4.97;;;3.38;;
6406;SDS011;3236;51.022;6.818;2022-08-14T14:43:49;3.53;;;3.22;;
6406;SDS011;3236;51.022;6.818;2022-08-14T14:46:19;3.33;;;3.03;;
6406;SDS011;3236;51.022;6.818;2022-08-14T14:48:47;4.07;;;3.30;;
6406;SDS011;3236;51.022;6.818;2022-08-14T14:51:14;5.13;;;3.65;;
6406;SDS011;3236;51.022;6.818;2022-08-14T14:53:43;3.90;;;3.53;;
6406;SDS011;3236;51.022;6.818;2022-08-14T14:56:11;3.58;;;3.28;;
6406;SDS011;3236;51.022;6.818;2022-08-14T14:58:39;3.50;;;3.20;;
6406;SDS011;3236;51.022;6.818;2022-08-14T15:01:08;3.92;;;3.35;;
6406;SDS011;3236;51.022;6.818;2022-08-14T15:03:38;4.05;;;2.70;;
6406;SDS011;3236;51.022;6.818;2022-08-14T15:06:10;3.70;;;3.40;;
6406;SDS011;3236;51.022;6.818;2022-08-14T15:08:37;3.28;;;2.92;;
6406;SDS011;3236;51.022;6.818;2022-08-14T15:11:05;3.50;;;3.20;;
6406;SDS011;3236;51.022;6.818;2022-08-14T15:13:32;3.10;;;2.90;;
6406;SDS011;3236;51.022;6.818;2022-08-14T15:16:04;4.40;;;3.30;;
6406;SDS011;3236;51.022;6.818;2022-08-14T15:18:34;3.40;;;3.10;;
6406;SDS011;3236;51.022;6.818;2022-08-14T15:21:03;2.72;;;2.53;;
6406;SDS011;3236;51.022;6.818;2022-08-14T15:23:31;2.97;;;2.75;;
6406;SDS011;3236;51.022;6.818;2022-08-14T15:25:59;5.10;;;2.92;;
6406;SDS011;3236;51.022;6.818;2022-08-14T15:28:26;3.13;;;2.72;;
6406;SDS011;3236;51.022;6.818;2022-08-14T15:30:57;4.35;;;2.75;;
6406;SDS011;3236;51.022;6.818;2022-08-14T15:33:26;3.42;;;3.13;;
6406;SDS011;3236;51.022;6.818;2022-08-14T15:36:12;3.25;;;2.90;;
6406;SDS011;3236;51.022;6.818;2022-08-14T15:38:38;3.42;;;3.10;;